createdAt,value
2022-11-04T00:01:55.728Z,100618.38
2022-11-04T00:04:25.221Z,100628.63
2022-11-04T00:06:57.587Z,100621.53
2022-11-04T00:09:30.170Z,100627.28
2022-11-04T00:12:16.232Z,100617.53
2022-11-04T00:14:44.030Z,100628.03
2022-11-04T00:17:24.298Z,100616.69
2022-11-04T00:20:12.231Z,100630.94
2022-11-04T00:23:00.623Z,100620.28
2022-11-04T00:25:46.441Z,100630.34
2022-11-04T00:28:37.533Z,100625.94
2022-11-04T00:31:26.509Z,100629.69
2022-11-04T00:34:02.455Z,100620.88
2022-11-04T00:36:35.452Z,100635.34
2022-11-04T00:39:04.752Z,100627.38
2022-11-04T00:41:43.441Z,100628.06
2022-11-04T00:46:56.282Z,100628.06
2022-11-04T00:49:25.675Z,100624.41
2022-11-04T00:51:52.879Z,100618.19
2022-11-04T00:54:20.134Z,100629.75
2022-11-04T00:56:48.771Z,100635.22
2022-11-04T00:59:16.038Z,100623.84
2022-11-04T01:01:43.929Z,100625.66
2022-11-04T01:04:14.539Z,100637.03
2022-11-04T01:06:41.884Z,100634.53
2022-11-04T01:09:15.900Z,100634.66
2022-11-04T01:11:43.211Z,100636.38
2022-11-04T01:14:10.755Z,100645.25
2022-11-04T01:16:42.164Z,100641.31
2022-11-04T01:19:10.881Z,100643.16
2022-11-04T01:21:38.491Z,100639.63
2022-11-04T01:24:06.049Z,100636.94
2022-11-04T01:27:02.465Z,100652.31
2022-11-04T01:29:28.670Z,100648.59
2022-11-04T01:31:58.153Z,100639.63
2022-11-04T01:34:42.390Z,100658.19
2022-11-04T01:37:14.340Z,100656.34
2022-11-04T01:39:44.605Z,100654.53
2022-11-04T01:42:15.104Z,100651.97
2022-11-04T01:44:49.055Z,100642.00
2022-11-04T01:48:04.849Z,100643.81
2022-11-04T01:50:34.359Z,100635.78
2022-11-04T01:53:10.155Z,100640.19
2022-11-04T01:55:45.544Z,100645.53
2022-11-04T01:58:18.378Z,100654.44
2022-11-04T02:00:46.298Z,100644.69
2022-11-04T02:03:20.278Z,100654.25
2022-11-04T02:05:51.243Z,100642.56
2022-11-04T02:08:24.283Z,100641.63
2022-11-04T02:11:09.257Z,100640.56
2022-11-04T02:13:37.233Z,100645.84
2022-11-04T02:16:12.727Z,100642.22
2022-11-04T02:18:51.854Z,100644.69
2022-11-04T02:21:46.795Z,100661.41
2022-11-04T02:24:35.179Z,100655.13
2022-11-04T02:27:20.057Z,100663.34
2022-11-04T02:30:08.039Z,100673.19
2022-11-04T02:33:01.065Z,100667.91
2022-11-04T02:35:32.707Z,100672.13
2022-11-04T02:38:21.456Z,100670.22
2022-11-04T02:41:04.885Z,100669.38
2022-11-04T02:44:00.193Z,100669.44
2022-11-04T02:46:40.620Z,100673.09
2022-11-04T02:49:31.095Z,100680.16
2022-11-04T02:52:12.953Z,100669.66
2022-11-04T02:54:47.685Z,100676.72
2022-11-04T02:57:21.997Z,100682.09
2022-11-04T02:59:56.210Z,100673.38
2022-11-04T03:02:31.512Z,100676.91
2022-11-04T03:04:59.291Z,100671.00
2022-11-04T03:07:31.860Z,100666.50
2022-11-04T03:10:05.554Z,100674.69
2022-11-04T03:13:05.402Z,100666.88
2022-11-04T03:15:35.125Z,100669.06
2022-11-04T03:18:12.491Z,100667.63
2022-11-04T03:20:42.057Z,100663.41
2022-11-04T03:23:11.111Z,100675.16
2022-11-04T03:25:43.364Z,100679.19
2022-11-04T03:28:32.340Z,100682.91
2022-11-04T03:31:02.492Z,100678.69
2022-11-04T03:33:35.811Z,100684.03
2022-11-04T03:36:04.492Z,100679.63
2022-11-04T03:38:39.286Z,100684.88
2022-11-04T03:41:11.286Z,100698.09
2022-11-04T03:43:39.025Z,100695.25
2022-11-04T03:46:06.592Z,100702.09
2022-11-04T03:48:34.118Z,100695.72
2022-11-04T03:51:01.549Z,100689.31
2022-11-04T03:53:29.418Z,100689.22
2022-11-04T03:56:09.150Z,100695.44
2022-11-04T03:58:58.515Z,100698.91
2022-11-04T04:02:04.543Z,100698.03
2022-11-04T04:04:40.781Z,100698.69
2022-11-04T04:07:15.355Z,100696.97
2022-11-04T04:09:46.734Z,100697.84
2022-11-04T04:12:19.502Z,100691.44
2022-11-04T04:14:52.524Z,100696.91
2022-11-04T04:17:31.456Z,100699.66
2022-11-04T04:20:02.347Z,100705.78
2022-11-04T04:22:57.391Z,100707.50
2022-11-04T04:25:54.693Z,100709.03
2022-11-04T04:28:22.384Z,100718.69
2022-11-04T04:30:50.123Z,100713.16
2022-11-04T04:33:19.468Z,100720.16
2022-11-04T04:35:54.362Z,100713.81
2022-11-04T04:38:51.313Z,100716.31
2022-11-04T04:41:46.213Z,100722.63
2022-11-04T04:44:42.761Z,100726.19
2022-11-04T04:47:11.680Z,100726.19
2022-11-04T04:49:52.708Z,100724.38
2022-11-04T04:52:21.032Z,100734.97
2022-11-04T04:54:48.268Z,100738.31
2022-11-04T04:57:18.919Z,100733.66
2022-11-04T04:59:46.092Z,100737.06
2022-11-04T05:02:15.288Z,100744.81
2022-11-04T05:04:43.380Z,100745.78
2022-11-04T05:07:11.673Z,100754.59
2022-11-04T05:09:39.862Z,100751.72
2022-11-04T05:12:07.469Z,100758.81
2022-11-04T05:14:38.180Z,100770.84
2022-11-04T05:17:05.545Z,100776.91
2022-11-04T05:19:33.539Z,100766.97
2022-11-04T05:22:04.243Z,100773.97
2022-11-04T05:24:32.821Z,100773.09
2022-11-04T05:27:00.086Z,100768.53
2022-11-04T05:29:36.435Z,100774.53
2022-11-04T05:32:03.765Z,100774.34
2022-11-04T05:34:39.254Z,100765.06
2022-11-04T05:37:06.978Z,100779.81
2022-11-04T05:39:36.789Z,100779.34
2022-11-04T05:42:06.608Z,100786.91
2022-11-04T05:44:46.766Z,100791.84
2022-11-04T05:47:16.642Z,100804.91
2022-11-04T05:49:44.501Z,100802.78
2022-11-04T05:52:14.927Z,100802.59
2022-11-04T05:54:45.616Z,100800.91
2022-11-04T05:57:13.222Z,100794.31
2022-11-04T05:59:45.653Z,100795.53
2022-11-04T06:02:13.200Z,100811.34
2022-11-04T06:04:40.883Z,100806.63
2022-11-04T06:07:09.293Z,100804.97
2022-11-04T06:09:44.175Z,100811.56
2022-11-04T06:12:18.243Z,100822.09
2022-11-04T06:14:56.072Z,100819.50
2022-11-04T06:17:28.181Z,100828.53
2022-11-04T06:19:55.390Z,100818.72
2022-11-04T06:22:29.358Z,100820.59
2022-11-04T06:25:11.106Z,100822.78
2022-11-04T06:30:26.446Z,100811.19
2022-11-04T06:32:58.045Z,100803.78
2022-11-04T06:35:25.307Z,100814.38
2022-11-04T06:38:10.685Z,100810.19
2022-11-04T06:40:40.373Z,100805.78
2022-11-04T06:43:13.223Z,100809.22
2022-11-04T06:45:40.498Z,100816.31
2022-11-04T06:48:11.319Z,100804.78
2022-11-04T06:50:41.546Z,100809.22
2022-11-04T06:53:09.305Z,100808.56
2022-11-04T06:55:37.203Z,100806.28
2022-11-04T06:58:04.720Z,100808.09
2022-11-04T07:00:32.299Z,100811.41
2022-11-04T07:02:59.696Z,100808.25
2022-11-04T07:05:27.275Z,100801.72
2022-11-04T07:07:54.693Z,100803.00
2022-11-04T07:10:24.934Z,100814.78
2022-11-04T07:12:56.899Z,100806.72
2022-11-04T07:15:27.822Z,100806.63
2022-11-04T07:17:59.299Z,100801.47
2022-11-04T07:20:26.704Z,100802.94
2022-11-04T07:22:59.817Z,100803.31
2022-11-04T07:25:33.107Z,100808.78
2022-11-04T07:28:03.325Z,100799.16
2022-11-04T07:30:30.809Z,100799.66
2022-11-04T07:32:59.144Z,100798.94
2022-11-04T07:35:26.828Z,100797.88
2022-11-04T07:37:55.435Z,100794.81
2022-11-04T07:40:22.951Z,100801.81
2022-11-04T07:43:07.053Z,100792.97
2022-11-04T07:45:34.576Z,100802.03
2022-11-04T07:48:02.140Z,100808.72
2022-11-04T07:50:37.328Z,100801.25
2022-11-04T07:53:14.477Z,100805.50
2022-11-04T07:55:45.515Z,100815.59
2022-11-04T07:58:16.229Z,100822.78
2022-11-04T08:00:45.044Z,100822.44
2022-11-04T08:03:15.241Z,100814.13
2022-11-04T08:05:43.028Z,100824.31
2022-11-04T08:08:15.699Z,100829.78
2022-11-04T08:10:53.659Z,100832.09
2022-11-04T08:13:22.675Z,100826.94
2022-11-04T08:15:51.797Z,100827.81
2022-11-04T08:18:34.901Z,100830.97
2022-11-04T08:21:08.015Z,100831.81
2022-11-04T08:23:36.028Z,100839.97
2022-11-04T08:26:11.337Z,100841.78
2022-11-04T08:28:42.837Z,100848.34
2022-11-04T08:31:16.966Z,100841.94
2022-11-04T08:33:48.447Z,100849.03
2022-11-04T08:36:20.142Z,100849.31
2022-11-04T08:38:51.523Z,100850.00
2022-11-04T08:41:21.946Z,100843.41
2022-11-04T08:43:54.537Z,100851.59
2022-11-04T08:46:22.675Z,100844.66
2022-11-04T08:48:49.951Z,100841.66
2022-11-04T08:51:20.355Z,100846.81
2022-11-04T08:53:48.150Z,100832.00
2022-11-04T08:56:16.400Z,100830.50
2022-11-04T08:58:45.594Z,100839.13
2022-11-04T09:01:15.622Z,100839.66
2022-11-04T09:03:43.577Z,100844.47
2022-11-04T09:06:14.757Z,100840.66
2022-11-04T09:08:43.486Z,100832.06
2022-11-04T09:11:13.936Z,100830.47
2022-11-04T09:13:42.307Z,100819.22
2022-11-04T09:16:14.430Z,100829.00
2022-11-04T09:19:05.075Z,100825.31
2022-11-04T09:21:35.223Z,100829.88
2022-11-04T09:24:02.697Z,100823.00
2022-11-04T09:26:31.529Z,100833.50
2022-11-04T09:29:00.141Z,100825.78
2022-11-04T09:31:29.807Z,100828.47
2022-11-04T09:33:57.743Z,100830.03
2022-11-04T09:36:25.782Z,100832.75
2022-11-04T09:38:52.993Z,100826.63
2022-11-04T09:41:29.483Z,100840.34
2022-11-04T09:44:14.765Z,100828.94
2022-11-04T09:46:43.142Z,100830.91
2022-11-04T09:49:13.318Z,100825.03
2022-11-04T09:51:54.428Z,100824.03
2022-11-04T09:54:28.454Z,100823.09
2022-11-04T09:56:59.848Z,100816.34
2022-11-04T09:59:30.239Z,100813.06
2022-11-04T10:02:30.113Z,100816.50
2022-11-04T10:05:06.354Z,100813.94
2022-11-04T10:07:45.789Z,100811.38
2022-11-04T10:10:46.086Z,100811.25
2022-11-04T10:14:01.606Z,100807.06
2022-11-04T10:16:46.826Z,100803.53
2022-11-04T10:19:48.465Z,100808.19
2022-11-04T10:22:31.499Z,100807.19
2022-11-04T10:25:02.636Z,100808.69
2022-11-04T10:27:34.894Z,100798.88
2022-11-04T10:30:06.514Z,100801.06
2022-11-04T10:32:35.011Z,100801.56
2022-11-04T10:35:06.400Z,100798.84
2022-11-04T10:37:36.912Z,100796.03
2022-11-04T10:40:25.217Z,100794.19
2022-11-04T10:42:53.749Z,100805.09
2022-11-04T10:45:23.766Z,100796.16
2022-11-04T10:47:58.324Z,100798.38
2022-11-04T10:50:37.579Z,100795.56
2022-11-04T10:53:20.728Z,100787.94
2022-11-04T10:55:54.198Z,100783.38
2022-11-04T10:58:27.743Z,100789.31
2022-11-04T11:00:55.814Z,100787.19
2022-11-04T11:03:25.130Z,100780.09
2022-11-04T11:05:53.560Z,100785.81
2022-11-04T11:08:31.936Z,100781.56
2022-11-04T11:11:00.292Z,100776.63
2022-11-04T11:13:36.123Z,100769.78
2022-11-04T11:16:20.836Z,100773.47
2022-11-04T11:19:18.392Z,100778.13
2022-11-04T11:21:51.546Z,100781.13
2022-11-04T11:24:25.997Z,100777.03
2022-11-04T11:26:55.640Z,100771.75
2022-11-04T11:29:25.714Z,100777.50
2022-11-04T11:31:54.042Z,100770.00
2022-11-04T11:34:26.671Z,100777.25
2022-11-04T11:36:57.825Z,100768.59
2022-11-04T11:39:32.783Z,100770.81
2022-11-04T11:42:06.303Z,100758.16
2022-11-04T11:44:49.242Z,100766.28
2022-11-04T11:47:38.173Z,100752.03
2022-11-04T11:50:34.474Z,100753.28
2022-11-04T11:53:19.717Z,100754.47
2022-11-04T11:55:51.458Z,100754.09
2022-11-04T12:01:35.940Z,100763.22
2022-11-04T12:10:23.987Z,100761.16
2022-11-04T12:13:23.351Z,100763.00
2022-11-04T12:16:02.821Z,100765.81
2022-11-04T12:18:46.801Z,100770.59
2022-11-04T12:21:21.530Z,100770.53
2022-11-04T12:23:55.066Z,100771.25
2022-11-04T12:26:57.730Z,100772.75
2022-11-04T12:29:46.362Z,100784.88
2022-11-04T12:32:30.259Z,100781.69
2022-11-04T12:35:08.516Z,100782.69
2022-11-04T12:37:58.131Z,100781.22
2022-11-04T12:40:33.583Z,100782.66
2022-11-04T12:43:22.335Z,100782.66
2022-11-04T12:46:26.044Z,100785.97
2022-11-04T12:49:07.384Z,100782.41
2022-11-04T12:52:30.139Z,100788.56
2022-11-04T12:55:25.377Z,100781.47
2022-11-04T12:58:12.908Z,100792.72
2022-11-04T13:00:46.622Z,100784.00
2022-11-04T13:03:30.291Z,100776.06
2022-11-04T13:06:06.095Z,100789.66
2022-11-04T13:08:46.939Z,100786.22
2022-11-04T13:11:25.983Z,100784.50
2022-11-04T13:14:11.995Z,100779.47
2022-11-04T13:16:42.596Z,100785.81
2022-11-04T13:19:52.234Z,100782.41
2022-11-04T13:22:48.876Z,100781.06
2022-11-04T13:25:27.120Z,100794.78
2022-11-04T13:27:55.986Z,100795.63
2022-11-04T13:30:41.257Z,100790.38
2022-11-04T13:33:43.989Z,100802.00
2022-11-04T13:36:35.710Z,100788.75
2022-11-04T13:39:22.428Z,100795.50
2022-11-04T13:42:26.856Z,100793.78
2022-11-04T13:44:58.699Z,100789.25
2022-11-04T13:47:37.999Z,100798.28
2022-11-04T13:50:05.979Z,100789.47
2022-11-04T13:52:34.393Z,100793.38
2022-11-04T13:55:04.694Z,100788.34
2022-11-04T13:57:55.587Z,100788.94
2022-11-04T14:00:24.927Z,100799.09
2022-11-04T14:02:53.160Z,100789.53
2022-11-04T14:05:29.829Z,100789.88
2022-11-04T14:08:03.078Z,100793.91
2022-11-04T14:10:49.219Z,100791.63
2022-11-04T14:13:28.490Z,100795.66
2022-11-04T14:16:24.643Z,100795.16
2022-11-04T17:12:02.462Z,100822.97
2022-11-04T17:14:33.015Z,100824.59
2022-11-04T17:17:00.452Z,100811.28
2022-11-04T17:19:33.422Z,100816.66
2022-11-04T17:22:06.652Z,100821.03
2022-11-04T17:24:38.064Z,100815.03
2022-11-04T17:27:17.920Z,100819.53
2022-11-04T17:29:45.761Z,100819.53
2022-11-04T17:32:13.901Z,100818.03
2022-11-04T17:34:41.495Z,100821.47
2022-11-04T17:37:15.327Z,100814.16
2022-11-04T17:39:44.114Z,100822.44
2022-11-04T17:42:30.693Z,100822.44
2022-11-04T17:45:01.390Z,100814.38
2022-11-04T17:47:43.147Z,100817.16
2022-11-04T17:50:11.816Z,100817.06
2022-11-04T17:52:52.482Z,100819.75
2022-11-04T17:55:26.186Z,100808.03
2022-11-04T17:57:55.624Z,100809.00
2022-11-04T18:00:48.786Z,100816.00
2022-11-04T18:03:17.789Z,100810.63
2022-11-04T18:05:55.332Z,100813.06
2022-11-04T18:08:32.721Z,100802.22
2022-11-04T18:11:02.443Z,100802.13
2022-11-04T18:13:32.774Z,100807.69
2022-11-04T18:16:13.731Z,100806.97
2022-11-04T18:18:51.793Z,100813.38
2022-11-04T18:21:21.185Z,100803.72
2022-11-04T18:23:54.910Z,100808.31
2022-11-04T18:26:22.624Z,100811.22
2022-11-04T18:28:58.262Z,100814.84
2022-11-04T18:31:34.520Z,100808.63
2022-11-04T18:34:07.603Z,100812.47
2022-11-04T18:36:40.700Z,100803.69
2022-11-04T18:39:13.301Z,100814.50
2022-11-04T18:41:41.863Z,100813.78
2022-11-04T18:44:21.367Z,100822.50
2022-11-04T18:46:49.821Z,100825.19
2022-11-04T18:49:18.242Z,100830.31
2022-11-04T18:51:45.572Z,100833.91
2022-11-04T18:54:16.647Z,100832.16
2022-11-04T18:56:44.116Z,100835.06
2022-11-04T18:59:15.267Z,100837.53
2022-11-04T19:01:43.983Z,100842.91
2022-11-04T19:04:14.045Z,100841.19
2022-11-04T19:06:44.227Z,100848.19
2022-11-04T19:09:45.352Z,100848.06
2022-11-04T19:12:27.236Z,100841.00
2022-11-04T19:14:55.457Z,100847.22
2022-11-04T19:17:22.881Z,100851.63
2022-11-04T19:19:54.188Z,100857.75
2022-11-04T19:22:25.997Z,100854.97
2022-11-04T19:24:59.880Z,100862.00
2022-11-04T19:27:38.446Z,100854.78
2022-11-04T19:30:11.068Z,100861.88
2022-11-04T19:35:26.559Z,100868.03
2022-11-04T19:38:09.525Z,100869.63
2022-11-04T19:40:51.710Z,100872.19
2022-11-04T19:43:23.299Z,100871.34
2022-11-04T19:45:50.872Z,100868.56
2022-11-04T19:48:21.689Z,100871.16
2022-11-04T19:50:50.686Z,100861.44
2022-11-04T19:53:20.091Z,100873.09
2022-11-04T19:59:16.672Z,100872.31
2022-11-04T20:01:45.858Z,100874.34
2022-11-04T20:08:13.372Z,100873.41
2022-11-04T20:10:47.049Z,100874.34
2022-11-04T20:13:41.334Z,100869.94
2022-11-04T20:16:29.453Z,100868.28
2022-11-04T20:19:06.970Z,100865.72
2022-11-04T20:21:38.177Z,100872.13
2022-11-04T20:24:07.675Z,100864.19
2022-11-04T20:26:38.114Z,100856.34
2022-11-04T20:29:11.263Z,100862.78
2022-11-04T20:31:41.340Z,100869.16
2022-11-04T20:34:11.648Z,100865.56
2022-11-04T20:37:19.738Z,100863.84
2022-11-04T20:39:52.288Z,100866.66
2022-11-04T20:42:22.004Z,100866.75
2022-11-04T20:45:02.029Z,100870.50
2022-11-04T20:47:30.031Z,100864.28
2022-11-04T20:49:58.706Z,100869.53
2022-11-04T20:52:26.402Z,100861.47
2022-11-04T20:54:56.477Z,100865.88
2022-11-04T20:57:23.959Z,100878.38
2022-11-04T20:59:53.562Z,100870.19
2022-11-04T21:02:23.068Z,100868.25
2022-11-04T21:04:55.233Z,100870.84
2022-11-04T21:07:46.336Z,100867.09
2022-11-04T21:10:20.704Z,100867.09
2022-11-04T21:12:55.228Z,100868.81
2022-11-04T21:15:45.784Z,100868.72
2022-11-04T21:18:13.848Z,100867.94
2022-11-04T21:20:45.406Z,100873.13
2022-11-04T21:23:14.880Z,100871.28
2022-11-04T21:25:48.601Z,100866.78
2022-11-04T21:28:17.811Z,100863.22
2022-11-04T21:30:48.824Z,100864.06
2022-11-04T21:33:16.512Z,100858.09
2022-11-04T21:35:43.856Z,100863.66
2022-11-04T21:38:16.749Z,100868.25
2022-11-04T21:40:45.016Z,100853.97
2022-11-04T21:43:13.594Z,100851.50
2022-11-04T21:45:41.603Z,100854.28
2022-11-04T21:48:14.153Z,100852.56
2022-11-04T21:50:44.521Z,100858.06
2022-11-04T21:53:13.225Z,100858.25
2022-11-04T21:55:44.941Z,100863.63
2022-11-04T21:58:12.591Z,100860.06
2022-11-04T22:00:40.373Z,100866.31
2022-11-04T22:03:13.905Z,100873.59
2022-11-04T22:05:44.832Z,100875.41
2022-11-04T22:08:19.968Z,100871.88
2022-11-04T22:10:48.288Z,100876.28
2022-11-04T22:13:17.203Z,100868.22
2022-11-04T22:16:04.516Z,100879.75
2022-11-04T22:18:33.157Z,100875.09
2022-11-04T22:21:05.933Z,100875.88
2022-11-04T22:23:35.337Z,100878.56
2022-11-04T22:26:15.042Z,100875.69
2022-11-04T22:28:47.550Z,100883.75
2022-11-04T22:31:21.744Z,100882.97
2022-11-04T22:33:51.532Z,100879.63
2022-11-04T22:36:25.821Z,100880.78
2022-11-04T22:38:54.293Z,100882.63
2022-11-04T22:41:23.747Z,100882.63
2022-11-04T22:43:52.911Z,100879.19
2022-11-04T22:46:26.346Z,100880.91
2022-11-04T22:48:53.736Z,100884.34
2022-11-04T22:51:21.055Z,100881.56
2022-11-04T22:53:56.613Z,100887.81
2022-11-04T22:56:26.370Z,100882.81
2022-11-04T22:58:54.467Z,100888.59
2022-11-04T23:01:22.320Z,100886.91
2022-11-04T23:03:54.616Z,100885.94
2022-11-04T23:06:22.269Z,100888.41
2022-11-04T23:08:49.636Z,100881.22
2022-11-04T23:11:41.074Z,100890.13
2022-11-04T23:14:30.227Z,100896.25
2022-11-04T23:17:19.055Z,100890.88
2022-11-04T23:19:47.224Z,100902.41
2022-11-04T23:22:32.868Z,100901.53
2022-11-04T23:25:09.308Z,100898.00
2022-11-04T23:28:05.171Z,100901.63
2022-11-04T23:30:35.919Z,100897.13
2022-11-04T23:33:14.310Z,100898.00
2022-11-04T23:36:03.453Z,100904.31
2022-11-04T23:38:31.565Z,100906.91
2022-11-04T23:41:26.670Z,100910.47
2022-11-04T23:43:53.932Z,100915.06
2022-11-04T23:46:43.365Z,100907.97
2022-11-04T23:49:14.701Z,100904.53
2022-11-04T23:52:00.820Z,100901.84
2022-11-04T23:54:46.793Z,100898.31
2022-11-04T23:57:34.606Z,100897.41
